createdAt,value
2022-12-11T00:02:13.134Z,16.52
2022-12-11T00:06:19.131Z,16.20
2022-12-11T00:10:23.446Z,15.70
2022-12-11T00:14:27.291Z,16.67
2022-12-11T00:18:30.316Z,16.58
2022-12-11T00:22:33.238Z,16.88
2022-12-11T00:26:37.522Z,17.27
2022-12-11T00:30:42.671Z,16.77
2022-12-11T00:34:46.078Z,17.63
2022-12-11T00:38:49.798Z,16.38
2022-12-11T00:42:54.086Z,18.17
2022-12-11T00:46:56.914Z,17.80
2022-12-11T00:51:00.283Z,17.40
2022-12-11T00:55:03.189Z,17.80
2022-12-11T00:59:07.451Z,16.27
2022-12-11T01:03:11.026Z,18.27
2022-12-11T01:07:13.966Z,16.95
2022-12-11T01:11:18.208Z,17.20
2022-12-11T01:15:24.085Z,18.30
2022-12-11T01:19:26.954Z,18.23
2022-12-11T01:23:30.426Z,18.33
2022-12-11T01:27:33.400Z,17.55
2022-12-11T01:31:37.789Z,18.00
2022-12-11T01:35:41.194Z,17.95
2022-12-11T01:39:44.146Z,19.63
2022-12-11T01:44:03.001Z,19.83
2022-12-11T01:48:12.043Z,20.08
2022-12-11T01:52:20.650Z,21.30
2022-12-11T01:56:24.283Z,21.65
2022-12-11T02:00:27.167Z,23.85
2022-12-11T02:04:32.989Z,23.27
2022-12-11T02:08:39.024Z,22.83
2022-12-11T02:12:52.864Z,23.15
2022-12-11T02:17:01.125Z,24.17
2022-12-11T02:21:11.820Z,24.23
2022-12-11T02:25:21.817Z,22.92
2022-12-11T02:29:34.123Z,23.83
2022-12-11T02:33:42.674Z,24.75
2022-12-11T02:37:47.922Z,25.08
2022-12-11T02:41:52.301Z,25.00
2022-12-11T02:45:57.769Z,26.90
2022-12-11T02:50:05.945Z,27.58
2022-12-11T02:54:13.553Z,26.13
2022-12-11T02:58:19.928Z,24.92
2022-12-11T03:02:24.348Z,27.35
2022-12-11T03:06:32.829Z,26.30
2022-12-11T03:10:35.827Z,26.00
2022-12-11T03:14:40.346Z,25.92
2022-12-11T03:18:53.493Z,26.42
2022-12-11T03:23:03.952Z,27.50
2022-12-11T03:27:15.773Z,26.35
2022-12-11T03:31:23.639Z,27.65
2022-12-11T03:35:31.967Z,26.65
2022-12-11T03:39:39.345Z,27.20
2022-12-11T03:43:43.157Z,26.90
2022-12-11T03:47:47.484Z,27.48
2022-12-11T03:51:54.199Z,26.38
2022-12-11T03:55:59.945Z,28.05
2022-12-11T04:00:04.968Z,28.27
2022-12-11T04:04:14.936Z,27.92
2022-12-11T04:08:20.786Z,28.58
2022-12-11T04:12:23.760Z,27.67
2022-12-11T04:16:26.609Z,29.30
2022-12-11T04:20:47.520Z,29.35
2022-12-11T04:24:51.861Z,28.38
2022-12-11T04:28:55.062Z,29.58
2022-12-11T04:32:57.959Z,28.77
2022-12-11T04:37:00.904Z,31.00
2022-12-11T04:41:08.543Z,28.55
2022-12-11T04:45:12.905Z,30.38
2022-12-11T04:49:15.940Z,30.73
2022-12-11T04:53:18.819Z,29.13
2022-12-11T04:57:23.095Z,28.10
2022-12-11T05:01:25.941Z,28.55
2022-12-11T05:05:28.849Z,28.98
2022-12-11T05:09:31.721Z,28.58
2022-12-11T05:13:36.056Z,28.10
2022-12-11T05:17:39.177Z,27.35
2022-12-11T05:21:42.159Z,27.50
2022-12-11T05:25:52.205Z,27.88
2022-12-11T05:29:59.606Z,28.38
2022-12-11T05:34:03.372Z,26.65
2022-12-11T05:38:06.316Z,26.13
2022-12-11T05:42:09.329Z,25.35
2022-12-11T05:46:15.226Z,27.08
2022-12-11T05:50:18.592Z,27.95
2022-12-11T05:54:21.555Z,26.27
2022-12-11T05:58:24.465Z,26.48
2022-12-11T06:02:28.792Z,27.92
2022-12-11T06:06:31.893Z,28.45
2022-12-11T06:10:35.311Z,30.27
2022-12-11T06:14:38.199Z,26.98
2022-12-11T06:18:45.172Z,28.23
2022-12-11T06:22:48.315Z,26.88
2022-12-11T06:26:51.159Z,27.45
2022-12-11T06:30:54.023Z,28.35
2022-12-11T06:34:58.238Z,28.10
2022-12-11T06:39:01.089Z,29.42
2022-12-11T06:43:04.019Z,29.73
2022-12-11T06:47:07.037Z,28.08
2022-12-11T06:51:13.424Z,28.45
2022-12-11T06:55:16.539Z,29.02
2022-12-11T06:59:19.418Z,29.83
2022-12-11T07:03:22.360Z,28.15
2022-12-11T07:07:26.601Z,26.75
2022-12-11T07:11:32.342Z,27.48
2022-12-11T07:15:40.469Z,29.23
2022-12-11T07:19:43.509Z,28.65
2022-12-11T07:23:48.671Z,26.50
2022-12-11T07:27:51.552Z,27.23
2022-12-11T07:31:54.578Z,27.10
2022-12-11T07:35:57.617Z,27.10
2022-12-11T07:40:01.818Z,25.27
2022-12-11T07:44:05.260Z,26.15
2022-12-11T07:48:08.275Z,25.75
2022-12-11T07:52:11.149Z,23.13
2022-12-11T07:56:15.723Z,23.52
2022-12-11T08:00:19.206Z,23.90
2022-12-11T08:04:22.031Z,21.80
2022-12-11T08:08:24.942Z,19.88
2022-12-11T08:12:29.156Z,20.42
2022-12-11T08:16:32.808Z,20.52
2022-12-11T08:20:35.795Z,20.23
2022-12-11T08:24:38.737Z,20.60
2022-12-11T08:28:43.092Z,22.83
2022-12-11T08:32:46.629Z,23.10
2022-12-11T08:36:49.490Z,22.27
2022-12-11T08:40:52.388Z,23.05
2022-12-11T08:44:56.738Z,23.02
2022-12-11T08:49:00.438Z,23.48
2022-12-11T08:53:03.378Z,23.70
2022-12-11T08:57:06.347Z,23.83
2022-12-11T09:01:12.754Z,23.85
2022-12-11T09:05:15.756Z,25.30
2022-12-11T09:09:19.704Z,25.02
2022-12-11T09:13:22.551Z,24.00
2022-12-11T09:17:26.935Z,23.80
2022-12-11T09:21:31.489Z,21.80
2022-12-11T09:25:34.405Z,23.83
2022-12-11T09:29:37.301Z,24.90
2022-12-11T09:33:41.810Z,25.27
2022-12-11T09:37:44.694Z,25.05
2022-12-11T09:41:53.706Z,26.42
2022-12-11T09:45:56.938Z,25.30
2022-12-11T09:50:07.593Z,27.33
2022-12-11T09:54:13.828Z,26.70
2022-12-11T09:58:26.719Z,22.52
2022-12-11T10:02:42.257Z,21.63
2022-12-11T10:06:51.553Z,20.23
2022-12-11T10:11:01.941Z,21.38
2022-12-11T10:15:30.655Z,20.33
2022-12-11T10:19:34.309Z,21.02
2022-12-11T10:23:44.822Z,21.67
2022-12-11T10:27:48.014Z,22.30
2022-12-11T10:31:54.628Z,19.67
2022-12-11T10:35:59.439Z,19.67
2022-12-11T10:40:03.971Z,17.52
2022-12-11T10:44:17.447Z,16.45
2022-12-11T10:48:20.513Z,15.38
2022-12-11T10:52:26.631Z,15.02
2022-12-11T10:56:33.592Z,16.67
2022-12-11T11:00:38.363Z,16.33
2022-12-11T11:04:44.971Z,16.05
2022-12-11T11:08:50.332Z,15.55
2022-12-11T11:13:03.060Z,16.00
2022-12-11T11:17:06.672Z,16.40
2022-12-11T11:21:17.545Z,16.25
2022-12-11T11:25:22.763Z,16.52
2022-12-11T11:29:31.869Z,15.70
2022-12-11T11:33:37.686Z,15.60
2022-12-11T11:37:41.846Z,16.50
2022-12-11T11:41:51.550Z,16.15
2022-12-11T11:45:59.336Z,16.67
2022-12-11T11:50:09.309Z,16.42
2022-12-11T11:54:25.089Z,17.05
2022-12-11T11:58:36.069Z,17.17
2022-12-11T12:02:46.994Z,16.85
2022-12-11T12:07:08.658Z,16.42
2022-12-11T12:11:21.594Z,16.70
2022-12-11T12:15:34.844Z,16.95
2022-12-11T12:19:52.999Z,18.17
2022-12-11T12:24:14.605Z,17.10
2022-12-11T12:28:31.431Z,16.73
2022-12-11T12:32:44.812Z,16.92
2022-12-11T12:36:59.407Z,16.67
2022-12-11T12:41:14.207Z,16.75
2022-12-11T12:45:27.365Z,16.63
2022-12-11T12:49:40.195Z,15.60
2022-12-11T12:53:50.643Z,16.02
2022-12-11T12:57:57.457Z,16.40
2022-12-11T13:02:03.059Z,16.35
2022-12-11T13:06:10.346Z,16.60
2022-12-11T13:10:28.528Z,17.27
2022-12-11T13:14:33.632Z,16.15
2022-12-11T13:18:38.564Z,18.30
2022-12-11T13:22:50.942Z,18.08
2022-12-11T13:26:55.651Z,17.73
2022-12-11T13:31:08.512Z,18.10
2022-12-11T13:35:17.329Z,17.67
2022-12-11T13:39:24.903Z,17.83
2022-12-11T13:43:32.476Z,17.73
2022-12-11T13:47:37.477Z,17.77
2022-12-11T13:51:41.737Z,17.25
2022-12-11T13:55:45.330Z,17.48
2022-12-11T13:59:53.069Z,17.73
2022-12-11T14:03:58.572Z,18.17
2022-12-11T14:08:08.278Z,17.77
2022-12-11T14:12:18.447Z,18.17
2022-12-11T14:16:24.880Z,16.77
2022-12-11T14:20:30.118Z,16.02
2022-12-11T14:24:33.768Z,16.25
2022-12-11T14:28:39.360Z,17.38
2022-12-11T14:32:45.788Z,17.00
2022-12-11T14:36:50.290Z,17.95
2022-12-11T14:40:57.560Z,16.90
2022-12-11T14:45:08.016Z,17.73
2022-12-11T14:49:21.804Z,17.55
2022-12-11T14:53:27.401Z,17.92
2022-12-11T14:57:31.990Z,17.35
2022-12-11T15:01:36.914Z,17.90
2022-12-11T15:05:50.791Z,18.70
2022-12-11T15:09:54.205Z,18.10
2022-12-11T15:13:59.118Z,17.70
2022-12-11T15:18:06.011Z,16.50
2022-12-11T15:22:15.528Z,16.52
2022-12-11T15:26:35.463Z,16.45
2022-12-11T15:30:38.694Z,14.57
2022-12-11T15:34:45.396Z,13.50
2022-12-11T15:38:49.630Z,12.10
2022-12-11T15:42:54.789Z,11.95
2022-12-11T15:46:57.721Z,12.68
2022-12-11T15:51:00.685Z,12.40
2022-12-11T15:55:06.851Z,13.82
2022-12-11T15:59:11.869Z,15.63
2022-12-11T16:03:16.433Z,16.92
2022-12-11T16:07:21.264Z,19.50
2022-12-11T16:11:25.453Z,20.20
2022-12-11T16:15:28.616Z,20.55
2022-12-11T16:19:31.710Z,19.13
2022-12-11T16:23:34.711Z,20.02
2022-12-11T16:27:38.946Z,19.35
2022-12-11T16:31:41.744Z,21.13
2022-12-11T16:35:51.191Z,19.08
2022-12-11T16:39:56.515Z,19.23
2022-12-11T16:44:03.558Z,18.58
2022-12-11T16:48:07.143Z,18.45
2022-12-11T16:52:10.548Z,18.15
2022-12-11T16:56:13.699Z,18.50
2022-12-11T17:00:18.707Z,18.52
2022-12-11T17:04:21.813Z,18.58
2022-12-11T17:08:24.889Z,18.65
2022-12-11T17:12:28.842Z,18.67
2022-12-11T17:16:33.960Z,16.20
2022-12-11T17:20:41.705Z,15.32
2022-12-11T17:24:44.933Z,16.10
2022-12-11T17:28:50.108Z,14.68
2022-12-11T17:32:54.510Z,14.50
2022-12-11T17:36:57.789Z,16.70
2022-12-11T17:41:01.363Z,17.60
2022-12-11T17:45:10.270Z,15.63
2022-12-11T17:49:16.727Z,16.23
2022-12-11T17:53:21.371Z,15.85
2022-12-11T17:57:24.521Z,15.55
2022-12-11T18:01:27.466Z,14.95
2022-12-11T18:05:31.804Z,16.08
2022-12-11T18:09:35.722Z,15.02
2022-12-11T18:13:41.275Z,14.98
2022-12-11T18:17:47.064Z,14.30
2022-12-11T18:21:55.239Z,13.45
2022-12-11T18:25:58.342Z,14.60
2022-12-11T18:30:01.286Z,13.88
2022-12-11T18:34:06.009Z,13.32
2022-12-11T18:38:12.597Z,19.80
2022-12-11T18:46:39.374Z,12.90
2022-12-11T18:50:53.449Z,12.45
2022-12-11T18:54:58.530Z,11.57
2022-12-11T18:59:02.182Z,13.90
2022-12-11T19:03:09.378Z,13.75
2022-12-11T19:07:15.416Z,14.77
2022-12-11T19:11:23.060Z,17.00
2022-12-11T19:15:34.694Z,17.15
2022-12-11T19:19:37.929Z,16.92
2022-12-11T19:23:41.224Z,17.95
2022-12-11T19:27:49.992Z,16.33
2022-12-11T19:31:53.862Z,16.63
2022-12-11T19:36:02.628Z,16.80
2022-12-11T19:40:07.157Z,17.65
2022-12-11T19:44:11.736Z,16.85
2022-12-11T19:48:14.736Z,17.92
2022-12-11T19:52:17.689Z,16.30
2022-12-11T19:56:21.324Z,17.00
2022-12-11T20:00:25.640Z,14.57
2022-12-11T20:04:28.709Z,17.00
2022-12-11T20:08:46.981Z,17.45
2022-12-11T20:12:50.204Z,16.70
2022-12-11T20:17:13.782Z,14.25
2022-12-11T20:21:19.962Z,15.40
2022-12-11T20:25:23.915Z,15.63
2022-12-11T20:29:26.863Z,16.70
2022-12-11T20:33:31.111Z,15.45
2022-12-11T20:37:34.592Z,16.15
2022-12-11T20:41:37.444Z,16.05
2022-12-11T20:45:40.378Z,17.40
2022-12-11T20:49:44.700Z,16.45
2022-12-11T20:53:47.560Z,17.10
2022-12-11T20:57:50.416Z,17.20
2022-12-11T21:01:53.351Z,19.30
2022-12-11T21:05:57.530Z,17.60
2022-12-11T21:10:00.440Z,17.10
2022-12-11T21:14:03.686Z,17.45
2022-12-11T21:18:07.225Z,17.10
2022-12-11T21:22:11.416Z,17.17
2022-12-11T21:26:21.841Z,17.38
2022-12-11T21:30:24.816Z,18.02
2022-12-11T21:34:28.344Z,17.98
2022-12-11T21:38:32.691Z,17.10
2022-12-11T21:42:35.703Z,17.58
2022-12-11T21:46:38.743Z,18.30
2022-12-11T21:50:44.830Z,18.30
2022-12-11T21:54:49.288Z,18.90
2022-12-11T21:58:54.238Z,17.55
2022-12-11T22:02:57.109Z,17.42
2022-12-11T22:07:00.086Z,16.95
2022-12-11T22:11:05.011Z,18.83
2022-12-11T22:15:09.700Z,17.08
2022-12-11T22:19:13.776Z,18.15
2022-12-11T22:23:16.796Z,17.92
2022-12-11T22:27:23.852Z,17.50
2022-12-11T22:31:28.186Z,16.92
2022-12-11T22:35:31.161Z,17.55
2022-12-11T22:39:33.959Z,18.05
2022-12-11T22:43:38.451Z,19.00
2022-12-11T22:47:41.405Z,17.15
2022-12-11T22:51:44.772Z,18.13
2022-12-11T22:55:47.703Z,18.52
2022-12-11T22:59:52.152Z,19.90
2022-12-11T23:03:55.365Z,18.13
2022-12-11T23:07:59.399Z,17.75
2022-12-11T23:12:02.559Z,18.88
2022-12-11T23:16:07.093Z,17.58
2022-12-11T23:20:11.229Z,18.42
2022-12-11T23:24:14.106Z,18.88
2022-12-11T23:28:16.968Z,18.08
2022-12-11T23:32:21.445Z,19.02
2022-12-11T23:36:24.867Z,18.75
2022-12-11T23:40:27.725Z,19.17
2022-12-11T23:44:30.650Z,19.45
2022-12-11T23:48:34.870Z,18.83
2022-12-11T23:52:37.736Z,20.23
2022-12-11T23:56:40.652Z,18.77
